Terminal Aerodrome Forecast
Issued by NWS St Louis, MO

Home | Current Version | Previous Version | Text Only | Print | Product List | Glossary On
Versions: 1 2 3 4 5 6 7 8 9 10 11 12 13 14 15 16 17 18 19 20 21
666
FTUS43 KLSX 200900 AAA
TAFSTL
TAF AMD
KSTL 200900Z 2009/2112 19010KT P6SM BKN080
     FM201200 20010KT P6SM VCSH BKN060
     FM201500 24012G20KT P6SM -SHRA VCTS BKN050CB
     FM201900 27011KT P6SM VCSH BKN040
     FM202200 30011KT P6SM BKN060
     FM210000 31009KT P6SM SCT110
     FM210600 35006KT P6SM FEW150=

USA.gov is the U.S. government's official web portal to all federal, state and local government web resources and services.